createdAt,value
2022-12-31T00:00:27.202Z,100360.08
2022-12-31T00:05:50.578Z,100357.48
2022-12-31T00:10:53.691Z,100355.41
2022-12-31T00:16:12.195Z,100345.05
2022-12-31T00:21:17.116Z,100337.46
2022-12-31T00:26:24.910Z,100325.59
2022-12-31T00:31:30.622Z,100324.73
2022-12-31T00:36:39.255Z,100328.52
2022-12-31T00:41:44.262Z,100317.48
2022-12-31T00:46:48.499Z,100309.91
2022-12-31T00:51:51.600Z,100302.00
2022-12-31T00:56:54.678Z,100296.48
2022-12-31T01:01:57.829Z,100292.86
2022-12-31T01:07:00.989Z,100282.34
2022-12-31T01:12:04.398Z,100270.98
2022-12-31T01:17:08.171Z,100261.33
2022-12-31T01:22:11.297Z,100249.95
2022-12-31T01:27:14.616Z,100249.77
2022-12-31T01:32:18.244Z,100257.00
2022-12-31T01:37:21.379Z,100258.39
2022-12-31T01:42:24.464Z,100251.15
2022-12-31T01:47:42.605Z,100240.80
2022-12-31T01:52:50.080Z,100236.14
2022-12-31T01:57:58.556Z,100218.02
2022-12-31T02:03:02.686Z,100208.72
2022-12-31T02:08:06.928Z,100203.72
2022-12-31T02:13:10.329Z,100200.09
2022-12-31T02:18:46.038Z,100191.46
2022-12-31T02:24:10.156Z,100195.94
2022-12-31T02:29:48.725Z,100172.30
2022-12-31T02:34:59.082Z,100163.51
2022-12-31T02:40:04.108Z,100154.71
2022-12-31T02:45:08.245Z,100150.91
2022-12-31T02:50:31.878Z,100157.61
2022-12-31T02:55:58.081Z,100174.14
2022-12-31T03:01:19.989Z,100171.33
2022-12-31T03:06:23.292Z,100153.20
2022-12-31T03:11:45.037Z,100167.35
2022-12-31T03:16:49.233Z,100177.17
2022-12-31T03:22:10.788Z,100173.18
2022-12-31T03:27:13.925Z,100174.69
2022-12-31T03:32:17.059Z,100174.80
2022-12-31T03:37:20.255Z,100185.30
2022-12-31T03:42:23.426Z,100187.19
2022-12-31T03:47:26.645Z,100194.95
2022-12-31T03:52:29.771Z,100195.77
2022-12-31T03:57:33.663Z,100190.70
2022-12-31T04:02:37.288Z,100189.39
2022-12-31T04:07:41.766Z,100185.51
2022-12-31T04:12:45.412Z,100184.75
2022-12-31T04:17:49.241Z,100183.86
2022-12-31T04:22:52.399Z,100185.55
2022-12-31T04:27:55.487Z,100178.89
2022-12-31T04:32:58.602Z,100184.52
2022-12-31T04:38:01.731Z,100181.36
2022-12-31T04:43:04.795Z,100166.44
2022-12-31T04:48:07.863Z,100163.27
2022-12-31T04:53:10.942Z,100161.81
2022-12-31T04:58:14.046Z,100163.27
2022-12-31T05:03:18.562Z,100172.89
2022-12-31T05:08:21.967Z,100179.92
2022-12-31T05:13:29.499Z,100180.20
2022-12-31T05:18:37.023Z,100172.45
2022-12-31T05:23:40.196Z,100164.04
2022-12-31T05:28:43.359Z,100169.36
2022-12-31T05:33:46.513Z,100171.23
2022-12-31T05:38:49.602Z,100179.85
2022-12-31T05:43:52.671Z,100175.84
2022-12-31T05:48:55.780Z,100173.19
2022-12-31T05:53:58.986Z,100167.02
2022-12-31T05:59:02.129Z,100151.12
2022-12-31T06:04:06.185Z,100153.85
2022-12-31T06:09:09.505Z,100154.23
2022-12-31T06:14:13.014Z,100152.41
2022-12-31T06:19:16.186Z,100150.48
2022-12-31T06:24:19.379Z,100151.73
2022-12-31T06:29:22.474Z,100163.02
2022-12-31T06:34:25.648Z,100169.60
2022-12-31T06:39:28.912Z,100170.73
2022-12-31T06:44:32.039Z,100168.79
2022-12-31T06:49:35.157Z,100164.11
2022-12-31T06:54:38.747Z,100166.64
2022-12-31T06:59:42.269Z,100175.20
2022-12-31T07:05:10.449Z,100175.20
2022-12-31T07:10:30.091Z,100183.73
2022-12-31T07:15:59.110Z,100192.48
2022-12-31T07:21:02.847Z,100205.11
2022-12-31T07:26:35.735Z,100208.84
2022-12-31T07:32:08.065Z,100206.77
2022-12-31T07:37:36.437Z,100215.09
2022-12-31T07:42:57.137Z,100221.23
2022-12-31T07:48:02.838Z,100215.44
2022-12-31T07:53:06.492Z,100215.91
2022-12-31T07:58:22.416Z,100213.40
2022-12-31T08:03:40.796Z,100208.39
2022-12-31T08:08:49.873Z,100220.34
2022-12-31T08:13:56.410Z,100226.44
2022-12-31T08:18:59.785Z,100229.17
2022-12-31T08:24:21.962Z,100225.14
2022-12-31T08:29:53.189Z,100224.50
2022-12-31T08:35:15.503Z,100232.78
2022-12-31T08:40:50.436Z,100246.66
2022-12-31T08:45:58.073Z,100254.48
2022-12-31T08:51:01.492Z,100256.41
2022-12-31T08:56:15.483Z,100255.98
2022-12-31T09:01:24.791Z,100254.05
2022-12-31T09:06:38.234Z,100242.81
2022-12-31T09:12:06.266Z,100236.94
2022-12-31T09:17:33.896Z,100244.08
2022-12-31T09:22:38.728Z,100237.88
2022-12-31T09:28:11.666Z,100230.86
2022-12-31T09:33:36.726Z,100218.77
2022-12-31T09:38:39.785Z,100217.23
2022-12-31T09:43:48.843Z,100213.93
2022-12-31T09:49:01.231Z,100194.30
2022-12-31T09:54:04.323Z,100180.32
2022-12-31T09:59:17.980Z,100178.47
2022-12-31T10:04:48.303Z,100182.80
2022-12-31T10:10:12.996Z,100182.10
2022-12-31T10:15:49.796Z,100176.34
2022-12-31T10:21:11.723Z,100176.23
2022-12-31T10:26:33.652Z,100181.98
2022-12-31T10:32:31.682Z,100172.66
2022-12-31T10:37:56.673Z,100168.58
2022-12-31T10:43:34.178Z,100165.89
2022-12-31T10:48:54.979Z,100154.37
2022-12-31T10:54:07.332Z,100133.98
2022-12-31T11:05:49.090Z,100128.47
2022-12-31T11:11:23.823Z,100124.02
2022-12-31T11:17:03.580Z,100091.84
2022-12-31T11:22:33.723Z,100085.63
2022-12-31T11:27:49.620Z,100100.20
2022-12-31T11:33:20.585Z,100120.60
2022-12-31T11:38:23.687Z,100111.21
2022-12-31T11:43:54.707Z,100099.30
2022-12-31T11:49:00.607Z,100089.66
2022-12-31T11:54:26.020Z,100099.89
2022-12-31T11:59:38.411Z,100093.19
2022-12-31T12:04:41.824Z,100091.80
2022-12-31T12:09:49.221Z,100097.46
2022-12-31T12:14:55.035Z,100088.27
2022-12-31T12:20:15.286Z,100083.09
2022-12-31T12:25:22.504Z,100086.58
2022-12-31T12:30:28.230Z,100083.49
2022-12-31T12:35:34.175Z,100080.22
2022-12-31T12:40:59.041Z,100062.84
2022-12-31T12:46:42.593Z,100060.57
2022-12-31T12:52:16.987Z,100054.14
2022-12-31T12:57:47.666Z,100042.21
2022-12-31T13:03:02.178Z,100044.09
2022-12-31T13:08:15.127Z,100043.73
2022-12-31T13:13:47.692Z,100052.87
2022-12-31T13:19:04.734Z,100047.44
2022-12-31T13:24:32.837Z,100043.30
2022-12-31T13:29:49.120Z,100040.11
2022-12-31T13:35:10.893Z,100046.64
2022-12-31T13:41:23.993Z,100034.26
2022-12-31T13:47:04.807Z,100042.52
2022-12-31T13:52:35.330Z,100051.46
2022-12-31T13:58:11.639Z,100052.84
2022-12-31T14:03:31.654Z,100047.88
2022-12-31T14:09:02.431Z,100050.58
2022-12-31T14:14:42.419Z,100053.45
2022-12-31T14:20:06.369Z,100069.66
2022-12-31T14:26:01.757Z,100076.98
2022-12-31T14:31:20.159Z,100079.75
2022-12-31T14:37:04.557Z,100075.80
2022-12-31T14:42:34.938Z,100082.66
2022-12-31T14:47:55.734Z,100078.32
2022-12-31T14:53:33.671Z,100072.38
2022-12-31T14:58:39.652Z,100072.85
2022-12-31T15:03:45.994Z,100069.77
2022-12-31T15:09:08.800Z,100070.45
2022-12-31T15:14:36.899Z,100071.92
2022-12-31T15:19:50.043Z,100075.45
2022-12-31T15:32:26.142Z,100071.14
2022-12-31T15:38:18.817Z,100065.38
2022-12-31T15:43:25.228Z,100059.29
2022-12-31T15:48:52.094Z,100063.97
2022-12-31T15:53:58.320Z,100063.70
2022-12-31T15:59:06.689Z,100064.13
2022-12-31T16:04:42.826Z,100063.63
2022-12-31T16:09:59.172Z,100073.72
2022-12-31T16:15:03.355Z,100071.30
2022-12-31T16:20:30.426Z,100077.55
2022-12-31T16:25:34.119Z,100091.23
2022-12-31T16:30:37.561Z,100088.42
2022-12-31T16:35:41.096Z,100095.49
2022-12-31T16:41:04.204Z,100087.98
2022-12-31T16:46:10.342Z,100090.34
2022-12-31T16:51:21.346Z,100085.77
2022-12-31T16:56:36.699Z,100075.88
2022-12-31T17:01:40.042Z,100086.10
2022-12-31T17:06:44.248Z,100090.40
2022-12-31T17:11:56.476Z,100090.95
2022-12-31T17:17:08.814Z,100091.91
2022-12-31T17:22:34.236Z,100083.29
2022-12-31T17:27:39.838Z,100084.04
2022-12-31T17:32:45.534Z,100097.61
2022-12-31T17:37:48.713Z,100103.28
2022-12-31T17:42:52.063Z,100107.58
2022-12-31T17:47:59.936Z,100112.60
2022-12-31T17:53:11.225Z,100118.42
2022-12-31T17:58:23.556Z,100123.27
2022-12-31T18:03:30.972Z,100114.34
2022-12-31T18:08:34.183Z,100116.08
2022-12-31T18:13:37.399Z,100123.45
2022-12-31T18:18:42.147Z,100127.52
2022-12-31T18:23:47.992Z,100132.12
2022-12-31T18:28:51.598Z,100136.96
2022-12-31T18:33:57.112Z,100140.86
2022-12-31T18:39:00.393Z,100126.62
2022-12-31T18:44:03.743Z,100124.57
2022-12-31T18:49:06.872Z,100138.50
2022-12-31T18:54:12.330Z,100127.77
2022-12-31T18:59:15.556Z,100128.75
2022-12-31T19:04:27.092Z,100130.67
2022-12-31T19:09:45.199Z,100138.66
2022-12-31T19:14:49.470Z,100142.86
2022-12-31T19:19:52.561Z,100150.55
2022-12-31T19:24:55.692Z,100161.02
2022-12-31T19:30:00.759Z,100164.05
2022-12-31T19:35:04.290Z,100161.73
2022-12-31T19:40:13.061Z,100155.56
2022-12-31T19:45:21.595Z,100168.94
2022-12-31T19:50:27.479Z,100176.51
2022-12-31T19:55:33.066Z,100165.06
2022-12-31T20:00:36.304Z,100162.50
2022-12-31T20:05:39.529Z,100167.88
2022-12-31T20:10:43.875Z,100168.12
2022-12-31T20:15:48.006Z,100167.48
2022-12-31T20:20:55.804Z,100167.05
2022-12-31T20:26:00.488Z,100148.71
2022-12-31T20:31:12.440Z,100148.34
2022-12-31T20:36:17.759Z,100162.41
2022-12-31T20:41:23.320Z,100162.94
2022-12-31T20:46:29.890Z,100174.71
2022-12-31T20:51:35.093Z,100182.04
2022-12-31T20:56:41.319Z,100181.21
2022-12-31T21:02:19.284Z,100184.23
2022-12-31T21:07:07.962Z,100187.57
2022-12-31T21:12:30.449Z,100178.87
2022-12-31T21:17:33.617Z,100186.84
2022-12-31T21:22:36.815Z,100193.03
2022-12-31T21:27:40.037Z,100181.99
2022-12-31T21:32:43.193Z,100184.98
2022-12-31T21:37:58.424Z,100182.88
2022-12-31T21:43:03.931Z,100188.02
2022-12-31T21:48:20.546Z,100191.42
2022-12-31T21:53:29.207Z,100183.48
2022-12-31T21:58:36.758Z,100178.20
2022-12-31T22:03:39.988Z,100175.39
2022-12-31T22:08:44.864Z,100179.39
2022-12-31T22:13:49.918Z,100173.42
2022-12-31T22:18:55.762Z,100174.39
2022-12-31T22:23:59.108Z,100172.83
2022-12-31T22:29:02.271Z,100180.52
2022-12-31T22:34:05.469Z,100178.06
2022-12-31T22:39:44.732Z,100177.09
2022-12-31T22:44:38.597Z,100166.61
2022-12-31T22:49:41.727Z,100169.95
2022-12-31T22:54:44.809Z,100173.77
2022-12-31T22:59:47.978Z,100186.48
2022-12-31T23:04:51.131Z,100176.91
2022-12-31T23:10:12.884Z,100182.91
2022-12-31T23:15:34.704Z,100181.56
2022-12-31T23:20:57.173Z,100198.88
2022-12-31T23:26:02.167Z,100188.94
2022-12-31T23:31:06.840Z,100167.95
2022-12-31T23:36:10.222Z,100170.84
2022-12-31T23:41:15.754Z,100177.03
2022-12-31T23:46:19.000Z,100185.60
2022-12-31T23:51:22.384Z,100176.57
2022-12-31T23:56:25.485Z,100171.59
